Time;durP1;ratioP1;P1;durP2;ratioP2;P2;SDS_P1;SDS_P2;PMS_P1;PMS_P2;Temp;Humidity;BMP_temperature;BMP_pressure;BME280_temperature;BME280_humidity;BME280_pressure;Samples;Min_cycle;Max_cycle;Signal;HPM_P1;HPM_P2
2024/03/02 00:00:20;;;;;;;;;;;;;;;4.46;100.00;98261.47;4916199;29;20281;-81
2024/03/02 00:02:45;;;;;;;;;;;;;;;4.41;100.00;98250.31;4918858;29;20475;-82
2024/03/02 00:05:21;;;;;;;;;;;;;;;4.47;100.00;98246.59;4917921;29;20018;-87
2024/03/02 00:07:52;;;;;;;;;;;;;;;4.46;100.00;98247.50;4918400;29;20038;-83
2024/03/02 00:10:20;;;;;;;;;;;;;;;4.36;100.00;98247.03;4918610;29;19926;-88
2024/03/02 00:12:47;;;;;;;;;;;;;;;4.37;100.00;98243.50;4918702;29;20389;-86
2024/03/02 00:15:32;;;;;;;;;;;;;;;4.35;100.00;98248.78;4932096;29;19926;-88
2024/03/02 00:17:58;;;;;;;;;;;;;;;4.30;100.00;98242.91;4919485;29;20302;-81
2024/03/02 00:20:24;;;;;;;;;;;;;;;4.27;100.00;98243.03;4918944;29;19923;-83
2024/03/02 00:23:15;;;;;;;;;;;;;;;4.16;100.00;98248.75;4918301;29;19966;-82
2024/03/02 00:25:46;;;;;;;;;;;;;;;4.21;100.00;98239.81;4915273;29;20495;-83
2024/03/02 00:28:17;;;;;;;;;;;;;;;4.10;100.00;98240.25;4917096;29;19926;-83
2024/03/02 00:30:55;;;;;;;;;;;;;;;4.10;100.00;98235.88;4917162;29;20290;-85
2024/03/02 00:33:21;;;;;;;;;;;;;;;4.13;100.00;98243.63;4917064;29;19992;-80
2024/03/02 00:35:46;;;;;;;;;;;;;;;4.06;100.00;98244.78;4918088;29;19927;-80
2024/03/02 00:38:12;;;;;;;;;;;;;;;4.06;100.00;98246.56;4918124;29;19919;-84
2024/03/02 00:40:38;;;;;;;;;;;;;;;4.07;100.00;98251.72;4917033;29;20407;-83
2024/03/02 00:43:03;;;;;;;;;;;;;;;4.07;100.00;98251.72;4918173;29;19926;-83
2024/03/02 00:45:28;;;;;;;;;;;;;;;4.08;100.00;98248.16;4916813;29;19923;-86
2024/03/02 00:47:54;;;;;;;;;;;;;;;4.06;100.00;98242.16;4917042;29;19919;-81
2024/03/02 00:50:19;;;;;;;;;;;;;;;4.04;100.00;98240.50;4918370;29;19923;-83
2024/03/02 00:52:45;;;;;;;;;;;;;;;4.01;100.00;98236.25;4918041;29;19919;-81
2024/03/02 00:55:10;;;;;;;;;;;;;;;4.00;100.00;98234.53;4918473;29;19931;-86
2024/03/02 00:57:35;;;;;;;;;;;;;;;3.92;100.00;98241.84;4918277;29;19919;-86
2024/03/02 01:00:01;;;;;;;;;;;;;;;3.95;100.00;98237.34;4917237;29;20267;-84
2024/03/02 01:02:27;;;;;;;;;;;;;;;3.90;100.00;98249.78;4918902;29;19930;-87
2024/03/02 01:04:53;;;;;;;;;;;;;;;3.93;100.00;98235.72;4932577;29;20387;-81
2024/03/02 01:07:18;;;;;;;;;;;;;;;3.92;100.00;98234.84;4916327;29;20018;-84
2024/03/02 01:09:43;;;;;;;;;;;;;;;3.89;100.00;98236.75;4916984;29;19962;-83
2024/03/02 01:12:08;;;;;;;;;;;;;;;3.91;100.00;98237.53;4919175;29;19923;-85
2024/03/02 01:14:34;;;;;;;;;;;;;;;3.96;100.00;98239.06;4917038;29;20014;-85
2024/03/02 01:17:03;;;;;;;;;;;;;;;3.85;100.00;98235.19;4918083;29;19923;-80
2024/03/02 01:19:28;;;;;;;;;;;;;;;3.85;100.00;98243.88;4916991;29;20390;-87
2024/03/02 01:21:53;;;;;;;;;;;;;;;3.88;100.00;98240.25;4916138;29;19927;-88
2024/03/02 01:24:19;;;;;;;;;;;;;;;3.92;100.00;98239.25;4917119;29;19923;-88
2024/03/02 01:26:44;;;;;;;;;;;;;;;3.84;100.00;98233.47;4917820;29;19919;-83
2024/03/02 01:29:09;;;;;;;;;;;;;;;3.88;100.00;98229.78;4916218;29;19923;-83
2024/03/02 01:31:34;;;;;;;;;;;;;;;3.88;100.00;98224.53;4917641;29;19919;-83
2024/03/02 01:33:59;;;;;;;;;;;;;;;3.95;100.00;98220.78;4917443;29;19934;-81
2024/03/02 01:36:25;;;;;;;;;;;;;;;3.85;100.00;98222.91;4917386;29;20375;-85
2024/03/02 01:38:50;;;;;;;;;;;;;;;3.93;100.00;98225.22;4916935;29;20298;-81
2024/03/02 01:41:15;;;;;;;;;;;;;;;3.83;100.00;98216.91;4917705;29;19920;-82
2024/03/02 01:43:41;;;;;;;;;;;;;;;3.82;100.00;98226.50;4915957;29;19923;-82
2024/03/02 01:46:06;;;;;;;;;;;;;;;3.82;100.00;98228.28;4923232;29;19927;-81
2024/03/02 01:48:31;;;;;;;;;;;;;;;3.85;100.00;98222.06;4915913;29;19919;-83
2024/03/02 01:50:57;;;;;;;;;;;;;;;3.86;100.00;98224.63;4915951;29;19975;-83
2024/03/02 01:53:23;;;;;;;;;;;;;;;3.89;100.00;98224.47;4917034;29;20013;-83
2024/03/02 01:55:48;;;;;;;;;;;;;;;3.90;100.00;98223.56;4917736;29;19919;-85
2024/03/02 01:58:13;;;;;;;;;;;;;;;3.85;100.00;98224.69;4916009;29;20298;-81
2024/03/02 02:00:39;;;;;;;;;;;;;;;3.87;100.00;98221.06;4915792;29;19923;-87
2024/03/02 02:03:04;;;;;;;;;;;;;;;3.88;100.00;98221.91;4916819;29;19923;-84
2024/03/02 02:05:33;;;;;;;;;;;;;;;3.87;100.00;98221.06;4917285;29;19919;-88
2024/03/02 05:45:30;;;;;;;;;;;;;;;4.14;100.00;98268.91;5486867;23;19935;-87
2024/03/02 05:47:55;;;;;;;;;;;;;;;4.15;100.00;98265.38;4955661;29;19923;-84
2024/03/02 05:50:21;;;;;;;;;;;;;;;4.18;100.00;98265.25;4955306;29;19923;-89
2024/03/02 05:52:46;;;;;;;;;;;;;;;4.16;100.00;98263.59;4955331;29;19919;-91
2024/03/02 05:55:12;;;;;;;;;;;;;;;4.11;100.00;98266.41;4955216;28;20070;-87
2024/03/02 06:00:08;;;;;;;;;;;;;;;4.25;100.00;98272.88;4953228;29;19986;-87
2024/03/02 06:02:35;;;;;;;;;;;;;;;4.16;100.00;98272.34;4954953;28;20322;-87
2024/03/02 06:05:00;;;;;;;;;;;;;;;4.22;100.00;98278.25;4955169;28;19987;-88
2024/03/02 06:07:25;;;;;;;;;;;;;;;4.21;100.00;98281.75;4954989;28;19922;-84
2024/03/02 06:09:52;;;;;;;;;;;;;;;4.22;100.00;98279.06;4953935;29;19919;-91
2024/03/02 06:12:17;;;;;;;;;;;;;;;4.19;100.00;98282.66;4953995;29;19919;-89
2024/03/02 06:14:43;;;;;;;;;;;;;;;4.23;100.00;98279.91;4953471;29;20360;-89
2024/03/02 06:17:08;;;;;;;;;;;;;;;4.21;100.00;98290.47;4954161;29;19930;-81
2024/03/02 06:19:33;;;;;;;;;;;;;;;4.22;100.00;98291.34;4954699;29;19966;-86
2024/03/02 06:21:59;;;;;;;;;;;;;;;4.21;100.00;98282.59;4954901;29;20344;-85
2024/03/02 06:24:26;;;;;;;;;;;;;;;4.16;100.00;98288.06;4954667;29;19965;-83
2024/03/02 06:26:51;;;;;;;;;;;;;;;4.22;100.00;98286.09;4954386;28;20464;-80
2024/03/02 06:29:17;;;;;;;;;;;;;;;4.18;100.00;98286.22;4953050;29;19919;-83
2024/03/02 06:31:42;;;;;;;;;;;;;;;4.20;100.00;98283.53;4954828;29;19918;-84
2024/03/02 06:34:08;;;;;;;;;;;;;;;4.25;100.00;98291.22;4955057;29;19922;-81
2024/03/02 06:36:33;;;;;;;;;;;;;;;4.23;100.00;98290.41;4953195;29;20289;-81
2024/03/02 06:38:58;;;;;;;;;;;;;;;4.23;100.00;98298.28;4954476;28;20009;-80
2024/03/02 06:41:24;;;;;;;;;;;;;;;4.31;100.00;98298.84;4954571;29;20281;-80
2024/03/02 06:43:49;;;;;;;;;;;;;;;4.22;100.00;98302.69;4954296;29;19919;-79
2024/03/02 06:46:14;;;;;;;;;;;;;;;4.26;100.00;98304.28;4952828;29;20420;-79
2024/03/02 06:48:40;;;;;;;;;;;;;;;4.22;100.00;98307.06;4954340;28;20259;-85
2024/03/02 06:51:05;;;;;;;;;;;;;;;4.25;100.00;98299.94;4954335;28;19922;-81
2024/03/02 06:53:33;;;;;;;;;;;;;;;4.29;100.00;98298.03;4953448;29;19919;-92
2024/03/02 06:55:58;;;;;;;;;;;;;;;4.28;100.00;98298.97;4954614;28;20403;-89
2024/03/02 06:58:23;;;;;;;;;;;;;;;4.30;100.00;98294.50;4954453;29;19926;-88
2024/03/02 07:00:49;;;;;;;;;;;;;;;4.25;100.00;98301.72;4952567;29;20304;-90
2024/03/02 07:03:14;;;;;;;;;;;;;;;4.31;100.00;98312.78;4954118;29;19922;-88
2024/03/02 07:05:39;;;;;;;;;;;;;;;4.29;100.00;98303.28;4952726;29;19922;-91
2024/03/02 07:08:05;;;;;;;;;;;;;;;4.35;100.00;98300.41;4954181;29;19923;-91
2024/03/02 07:10:31;;;;;;;;;;;;;;;4.34;100.00;98302.19;4954220;28;19925;-88
2024/03/02 07:12:56;;;;;;;;;;;;;;;4.29;100.00;98305.91;4952809;29;19919;-89
2024/03/02 07:17:52;;;;;;;;;;;;;;;4.38;100.00;98296.81;4954286;28;19965;-90
2024/03/02 07:20:17;;;;;;;;;;;;;;;4.41;100.00;98294.91;4953113;29;19927;-90
2024/03/02 07:22:43;;;;;;;;;;;;;;;4.41;100.00;98297.53;4953146;29;19925;-90
2024/03/02 07:25:08;;;;;;;;;;;;;;;4.40;100.00;98301.06;4954410;29;19973;-90
2024/03/02 07:27:35;;;;;;;;;;;;;;;4.49;100.00;98305.94;4954435;29;20006;-84
2024/03/02 07:30:01;;;;;;;;;;;;;;;4.45;100.00;98303.50;4951340;29;20377;-85
2024/03/02 08:41:40;;;;;;;;;;;;;;;4.42;100.00;98330.72;5582919;23;20018;-89
2024/03/02 08:44:06;;;;;;;;;;;;;;;4.41;100.00;98326.38;4971945;28;19922;-90
2024/03/02 08:46:31;;;;;;;;;;;;;;;4.41;100.00;98333.41;4956316;28;20348;-93
2024/03/02 08:48:56;;;;;;;;;;;;;;;4.49;100.00;98336.56;4954113;28;19965;-93
2024/03/02 08:51:22;;;;;;;;;;;;;;;4.41;100.00;98334.25;4956522;29;19918;-93
2024/03/02 08:53:47;;;;;;;;;;;;;;;4.45;100.00;98330.59;4956205;29;19957;-87
2024/03/02 08:56:17;;;;;;;;;;;;;;;4.49;100.00;98332.16;4955245;29;19950;-93
2024/03/02 08:58:48;;;;;;;;;;;;;;;4.44;100.00;98335.91;4955005;29;19918;-94
2024/03/02 09:01:23;;;;;;;;;;;;;;;4.51;100.00;98337.34;4955949;29;19966;-90
2024/03/02 09:03:49;;;;;;;;;;;;;;;4.50;100.00;98328.63;4956310;28;19918;-91
2024/03/02 09:06:16;;;;;;;;;;;;;;;4.45;100.00;98325.34;4954844;29;20326;-92
2024/03/02 09:08:41;;;;;;;;;;;;;;;4.55;100.00;98318.78;4955346;29;19919;-94
2024/03/02 09:11:07;;;;;;;;;;;;;;;4.51;100.00;98317.19;4954779;28;19925;-92
2024/03/02 09:13:49;;;;;;;;;;;;;;;;;;;;;
2024/03/02 09:16:15;;;;;;;;;;;;;;;4.66;100.00;98320.09;4955788;29;19922;-92
2024/03/02 09:18:40;;;;;;;;;;;;;;;4.60;100.00;98313.34;4955777;29;20006;-91
2024/03/02 09:21:05;;;;;;;;;;;;;;;4.65;100.00;98315.78;4955798;29;20329;-90
2024/03/02 09:23:30;;;;;;;;;;;;;;;4.62;100.00;98322.00;4955780;28;20013;-89
2024/03/02 09:25:56;;;;;;;;;;;;;;;4.62;100.00;98310.66;4954486;29;20010;-90
2024/03/02 09:28:21;;;;;;;;;;;;;;;4.67;100.00;98312.16;4954671;29;19919;-92
2024/03/02 09:30:55;;;;;;;;;;;;;;;4.63;100.00;98315.00;4955618;29;20029;-92
2024/03/02 09:33:20;;;;;;;;;;;;;;;4.67;100.00;98295.59;4955262;29;20377;-92
2024/03/02 09:35:46;;;;;;;;;;;;;;;4.67;100.00;98292.97;4954277;29;19922;-92
2024/03/02 09:38:11;;;;;;;;;;;;;;;4.68;100.00;98298.13;4954374;29;19922;-90
2024/03/02 09:40:36;;;;;;;;;;;;;;;4.74;100.00;98294.41;4954217;29;19924;-90
2024/03/02 09:43:03;;;;;;;;;;;;;;;4.65;100.00;98284.31;4955276;29;19929;-90
2024/03/02 09:45:29;;;;;;;;;;;;;;;4.68;100.00;98285.03;4954065;29;19953;-91
2024/03/02 09:47:55;;;;;;;;;;;;;;;4.65;100.00;98279.91;4953262;29;19918;-90
2024/03/02 09:50:20;;;;;;;;;;;;;;;4.69;100.00;98272.75;4955417;29;19928;-89
2024/03/02 09:53:04;;;;;;;;;;;;;;;4.69;100.00;98275.38;4955109;28;19923;-91
2024/03/02 09:55:29;;;;;;;;;;;;;;;4.69;100.00;98278.00;4953861;28;19964;-90
2024/03/02 09:57:55;;;;;;;;;;;;;;;4.73;100.00;98264.69;4955023;29;19953;-90
2024/03/02 10:00:21;;;;;;;;;;;;;;;4.75;100.00;98261.16;4953563;28;19977;-91
2024/03/02 10:02:48;;;;;;;;;;;;;;;4.72;100.00;98259.50;4955014;29;20017;-90
2024/03/02 10:05:23;;;;;;;;;;;;;;;4.83;100.00;98267.75;4955071;28;19926;-91
2024/03/02 10:07:58;;;;;;;;;;;;;;;4.77;100.00;98256.66;4954361;29;20459;-92
2024/03/02 10:10:33;;;;;;;;;;;;;;;4.79;100.00;98258.31;4951525;29;20301;-93
2024/03/02 10:13:05;;;;;;;;;;;;;;;4.87;100.00;98265.88;4954277;29;20540;-92
2024/03/02 10:15:30;;;;;;;;;;;;;;;4.85;100.00;98260.69;4969367;28;19926;-91
2024/03/02 10:17:56;;;;;;;;;;;;;;;4.84;100.00;98264.22;4953509;29;20354;-92
2024/03/02 10:20:23;;;;;;;;;;;;;;;4.84;100.00;98253.72;4954572;29;20012;-92
2024/03/02 10:22:48;;;;;;;;;;;;;;;4.81;100.00;98253.84;4954638;28;20502;-93
2024/03/02 10:25:32;;;;;;;;;;;;;;;4.89;100.00;98254.34;4953673;28;20013;-92
2024/03/02 10:27:58;;;;;;;;;;;;;;;4.87;100.00;98256.22;4969301;28;19977;-92
2024/03/02 10:30:24;;;;;;;;;;;;;;;4.85;100.00;98244.94;4954473;29;20013;-92
2024/03/02 10:32:49;;;;;;;;;;;;;;;4.88;100.00;98239.56;4953301;29;20392;-90
2024/03/02 10:38:46;;;;;;;;;;;;;;;;;;;;;
2024/03/02 10:48:21;;;;;;;;;;;;;;;4.94;100.00;98222.66;4766544;30;20357;-95
2024/03/02 10:50:46;;;;;;;;;;;;;;;4.97;100.00;98219.06;4850283;28;19923;-91
2024/03/02 11:03:12;;;;;;;;;;;;;;;;;;;;;
2024/03/02 11:05:40;;;;;;;;;;;;;;;5.00;100.00;98200.53;4858647;29;19944;-88
2024/03/02 11:08:28;;;;;;;;;;;;;;;;;;;;;
2024/03/02 11:10:58;;;;;;;;;;;;;;;4.98;100.00;98190.13;4952376;29;19918;-89
2024/03/02 11:16:42;;;;;;;;;;;;;;;;;;;;;
2024/03/02 11:19:16;;;;;;;;;;;;;;;5.14;100.00;98187.63;4953760;29;19924;-93
2024/03/02 11:21:42;;;;;;;;;;;;;;;5.11;100.00;98185.16;4951692;29;19925;-88
2024/03/02 11:24:38;;;;;;;;;;;;;;;5.18;100.00;98185.72;4953789;29;20304;-93
2024/03/02 11:29:40;;;;;;;;;;;;;;;5.18;100.00;98172.59;4961274;23;19931;-92
2024/03/02 11:32:20;;;;;;;;;;;;;;;5.13;100.00;98170.16;4968130;28;19919;-92
2024/03/02 11:34:47;;;;;;;;;;;;;;;5.18;100.00;98170.81;4953385;29;19925;-91
2024/03/02 11:37:16;;;;;;;;;;;;;;;5.25;100.00;98169.59;4967479;28;19948;-91
2024/03/02 11:39:43;;;;;;;;;;;;;;;5.20;100.00;98168.97;4952405;29;19925;-92
2024/03/02 11:42:11;;;;;;;;;;;;;;;5.22;100.00;98163.66;4952538;28;19923;-91
2024/03/02 11:44:41;;;;;;;;;;;;;;;5.24;100.00;98161.81;4953798;28;19918;-92
2024/03/02 11:47:31;;;;;;;;;;;;;;;5.17;100.00;98152.50;4953239;29;19918;-92
2024/03/02 11:53:13;;;;;;;;;;;;;;;5.18;100.00;98141.91;4924713;28;19918;-92
2024/03/02 11:55:57;;;;;;;;;;;;;;;5.26;100.00;98139.81;4952471;28;19923;-88
2024/03/02 11:58:30;;;;;;;;;;;;;;;5.28;100.00;98137.94;4953509;29;19918;-91
2024/03/02 12:01:02;;;;;;;;;;;;;;;5.31;100.00;98141.34;4951044;29;19929;-91
2024/03/02 12:03:28;;;;;;;;;;;;;;;5.26;100.00;98126.69;4953536;28;19924;-93
2024/03/02 12:05:54;;;;;;;;;;;;;;;5.29;100.00;98128.28;4952755;29;19970;-90
2024/03/02 12:08:40;;;;;;;;;;;;;;;5.32;100.00;98124.69;4952343;29;20331;-91
2024/03/02 12:11:06;;;;;;;;;;;;;;;5.30;100.00;98121.25;4951851;29;19926;-92
2024/03/02 12:16:59;;;;;;;;;;;;;;;5.31;100.00;98120.34;5294864;23;20021;-90
2024/03/02 12:19:25;;;;;;;;;;;;;;;5.34;100.00;98120.19;4962134;28;20009;-93
2024/03/02 12:21:54;;;;;;;;;;;;;;;5.38;100.00;98121.75;4961798;28;19930;-92
2024/03/02 12:27:29;;;;;;;;;;;;;;;5.39;100.00;98119.06;4943679;29;19976;-92
2024/03/02 12:29:55;;;;;;;;;;;;;;;5.40;100.00;98112.03;4963604;28;20349;-89
2024/03/02 12:32:27;;;;;;;;;;;;;;;5.47;100.00;98116.03;4966319;28;19962;-94
2024/03/02 12:35:22;;;;;;;;;;;;;;;5.45;100.00;98110.00;4966115;28;20443;-95
2024/03/02 12:37:51;;;;;;;;;;;;;;;5.44;100.00;98111.81;4962846;28;20041;-92
2024/03/02 12:40:18;;;;;;;;;;;;;;;5.54;100.00;98101.69;4965150;28;19919;-89
2024/03/02 12:42:44;;;;;;;;;;;;;;;5.55;100.00;98102.53;4966169;28;19973;-89
2024/03/02 12:45:12;;;;;;;;;;;;;;;5.49;100.00;98108.94;4964551;28;20329;-93
2024/03/02 12:47:39;;;;;;;;;;;;;;;5.56;100.00;98104.25;4965155;28;19989;-92
2024/03/02 12:50:04;;;;;;;;;;;;;;;5.55;100.00;98111.28;4966125;28;19941;-89
2024/03/02 12:52:39;;;;;;;;;;;;;;;5.49;100.00;98108.94;4965839;28;20384;-91
2024/03/02 13:01:10;;;;;;;;;;;;;;;5.57;100.00;98119.94;4975362;28;20289;-93
2024/03/02 13:03:39;;;;;;;;;;;;;;;5.62;100.00;98124.97;4975173;28;19918;-92
2024/03/02 13:09:14;;;;;;;;;;;;;;;5.64;100.00;98113.44;4975071;28;20372;-88
2024/03/02 13:14:35;;;;;;;;;;;;;;;5.58;100.00;98105.84;4974945;28;19922;-88
2024/03/02 13:17:03;;;;;;;;;;;;;;;5.69;100.00;98107.09;4975149;28;20439;-87
2024/03/02 13:19:48;;;;;;;;;;;;;;;5.61;100.00;98108.31;4975239;28;20312;-90
2024/03/02 13:22:13;;;;;;;;;;;;;;;5.62;100.00;98114.44;4974816;28;20020;-90
2024/03/02 13:24:42;;;;;;;;;;;;;;;5.67;100.00;98111.59;4974345;28;20273;-91
2024/03/02 13:27:13;;;;;;;;;;;;;;;5.65;100.00;98114.31;4970928;28;19972;-92
2024/03/02 13:29:38;;;;;;;;;;;;;;;5.64;100.00;98113.44;4975001;28;19918;-91
2024/03/02 13:32:04;;;;;;;;;;;;;;;5.67;100.00;98106.34;4974685;28;20396;-92
2024/03/02 13:34:31;;;;;;;;;;;;;;;5.67;100.00;98101.09;4974547;28;20376;-92
2024/03/02 13:36:57;;;;;;;;;;;;;;;5.64;100.00;98102.91;4974612;28;19918;-92
2024/03/02 13:39:27;;;;;;;;;;;;;;;5.77;100.00;98108.41;4974617;28;20372;-92
2024/03/02 13:42:11;;;;;;;;;;;;;;;;;;;;;
2024/03/02 13:44:42;;;;;;;;;;;;;;;5.71;100.00;98098.25;4974651;28;19918;-90
2024/03/02 13:47:07;;;;;;;;;;;;;;;5.70;100.00;98107.03;4973043;28;19960;-89
2024/03/02 13:50:07;;;;;;;;;;;;;;;5.75;100.00;98107.66;4974699;28;19965;-89
2024/03/02 13:52:35;;;;;;;;;;;;;;;5.79;100.00;98109.22;4973365;28;20254;-91
2024/03/02 13:55:03;;;;;;;;;;;;;;;5.73;100.00;98091.13;4973331;28;19921;-91
2024/03/02 13:57:28;;;;;;;;;;;;;;;5.81;100.00;98096.00;4971747;28;19922;-91
2024/03/02 13:59:56;;;;;;;;;;;;;;;5.79;100.00;98097.81;4974369;28;19926;-92
2024/03/02 14:02:21;;;;;;;;;;;;;;;5.83;100.00;98102.84;4973143;28;20286;-90
2024/03/02 14:04:48;;;;;;;;;;;;;;;5.91;100.00;98089.31;4974278;28;19926;-89
2024/03/02 14:07:13;;;;;;;;;;;;;;;5.83;100.00;98088.88;4973469;28;19922;-92
2024/03/02 14:09:38;;;;;;;;;;;;;;;5.78;100.00;98094.34;4974249;28;19922;-92
2024/03/02 14:12:07;;;;;;;;;;;;;;;5.86;100.00;98086.09;4972934;28;20475;-92
2024/03/02 14:14:33;;;;;;;;;;;;;;;5.80;100.00;98081.13;4972801;28;19918;-93
2024/03/02 14:17:03;;;;;;;;;;;;;;;5.84;100.00;98087.97;4974236;28;19969;-91
2024/03/02 14:19:28;;;;;;;;;;;;;;;5.86;100.00;98086.09;4973869;28;19972;-90
2024/03/02 14:21:54;;;;;;;;;;;;;;;5.81;100.00;98083.69;4974276;28;20000;-90
2024/03/02 14:24:19;;;;;;;;;;;;;;;5.83;100.00;98083.63;4973884;28;20297;-90
2024/03/02 14:26:45;;;;;;;;;;;;;;;5.84;100.00;98082.69;4971391;28;19938;-90
2024/03/02 14:29:11;;;;;;;;;;;;;;;5.82;100.00;98089.78;4973738;28;19968;-88
2024/03/02 14:31:43;;;;;;;;;;;;;;;5.87;100.00;98087.81;4973905;28;19953;-89
2024/03/02 14:34:12;;;;;;;;;;;;;;;5.87;100.00;98086.94;4971822;28;20000;-90
2024/03/02 14:36:37;;;;;;;;;;;;;;;5.81;100.00;98081.06;4972074;28;20025;-89
2024/03/02 14:39:19;;;;;;;;;;;;;;;5.85;100.00;98081.75;4973227;28;20049;-91
2024/03/02 14:41:45;;;;;;;;;;;;;;;5.90;100.00;98084.16;4979339;28;19969;-92
2024/03/02 14:44:12;;;;;;;;;;;;;;;5.85;100.00;98083.53;4973495;28;19969;-92
2024/03/02 14:46:38;;;;;;;;;;;;;;;5.84;100.00;98077.44;4972185;28;20361;-91
2024/03/02 14:49:03;;;;;;;;;;;;;;;5.92;100.00;98069.13;4972085;28;19925;-91
2024/03/02 14:51:30;;;;;;;;;;;;;;;5.84;100.00;98074.81;4972349;28;19922;-91
2024/03/02 14:53:57;;;;;;;;;;;;;;;5.86;100.00;98072.94;4972234;28;19918;-92
2024/03/02 14:56:23;;;;;;;;;;;;;;;5.94;100.00;98068.16;4971924;28;20277;-92
2024/03/02 14:58:50;;;;;;;;;;;;;;;5.87;100.00;98063.28;4972283;28;19926;-92
2024/03/02 15:01:17;;;;;;;;;;;;;;;5.89;100.00;98058.78;4973540;28;19918;-92
2024/03/02 15:03:45;;;;;;;;;;;;;;;5.95;100.00;98058.47;4972038;28;19973;-91
2024/03/02 15:06:13;;;;;;;;;;;;;;;5.91;100.00;98052.53;4971974;28;20297;-90
2024/03/02 15:08:41;;;;;;;;;;;;;;;5.88;100.00;98047.41;4972871;28;19956;-90
2024/03/02 15:11:06;;;;;;;;;;;;;;;5.93;100.00;98055.91;4971377;28;19918;-93
2024/03/02 15:13:35;;;;;;;;;;;;;;;5.91;100.00;98036.75;4973545;28;19919;-90
2024/03/02 15:16:00;;;;;;;;;;;;;;;5.89;100.00;98036.00;4972642;28;19926;-89
2024/03/02 15:18:27;;;;;;;;;;;;;;;5.95;100.00;98037.44;4971860;28;19990;-90
2024/03/02 15:20:52;;;;;;;;;;;;;;;5.91;100.00;98031.50;4971999;28;20016;-91
2024/03/02 15:23:17;;;;;;;;;;;;;;;5.93;100.00;98029.63;4971817;28;20013;-92
2024/03/02 15:25:43;;;;;;;;;;;;;;;6.00;100.00;98023.16;4970506;28;19922;-88
2024/03/02 15:28:11;;;;;;;;;;;;;;;5.94;100.00;98025.25;4972767;28;19930;-88
2024/03/02 15:30:36;;;;;;;;;;;;;;;5.97;100.00;98019.84;4973037;28;19918;-91
2024/03/02 15:33:02;;;;;;;;;;;;;;;6.07;100.00;98020.22;4973046;28;20014;-90
2024/03/02 15:35:29;;;;;;;;;;;;;;;5.99;100.00;98015.34;4971515;28;20405;-89
2024/03/02 15:37:54;;;;;;;;;;;;;;;5.98;100.00;98017.16;4973069;28;20373;-88
2024/03/02 15:40:22;;;;;;;;;;;;;;;6.08;100.00;98019.28;4971593;28;19918;-89
2024/03/02 15:42:47;;;;;;;;;;;;;;;6.01;100.00;98026.63;4973063;28;19930;-85
2024/03/02 15:45:13;;;;;;;;;;;;;;;6.02;100.00;98022.25;4972886;28;20297;-89
2024/03/02 15:47:38;;;;;;;;;;;;;;;6.03;100.00;98021.28;4979571;28;19922;-88
2024/03/02 15:50:04;;;;;;;;;;;;;;;5.94;100.00;98026.06;4971574;28;19918;-90
2024/03/02 15:52:29;;;;;;;;;;;;;;;6.02;100.00;98027.50;4971593;28;20278;-89
2024/03/02 15:54:55;;;;;;;;;;;;;;;6.04;100.00;98033.53;4973475;28;19926;-88
2024/03/02 15:57:20;;;;;;;;;;;;;;;5.97;100.00;98048.78;4971332;28;19934;-90
2024/03/02 15:59:46;;;;;;;;;;;;;;;6.03;100.00;98042.34;4974922;28;20069;-90
2024/03/02 16:02:11;;;;;;;;;;;;;;;6.04;100.00;98038.78;4975326;28;19945;-90
2024/03/02 16:04:37;;;;;;;;;;;;;;;5.97;100.00;98049.63;4976468;28;19918;-88
2024/03/02 16:07:04;;;;;;;;;;;;;;;6.04;100.00;98049.31;4975116;28;20282;-89
2024/03/02 16:09:30;;;;;;;;;;;;;;;6.02;100.00;98053.81;4976468;28;19945;-89
2024/03/02 16:12:00;;;;;;;;;;;;;;;5.99;100.00;98045.13;4973922;28;20325;-89
2024/03/02 16:14:29;;;;;;;;;;;;;;;6.06;100.00;98040.38;4976339;28;19922;-89
2024/03/02 16:16:59;;;;;;;;;;;;;;;6.07;100.00;98046.50;4945130;29;20381;-87
2024/03/02 16:19:24;;;;;;;;;;;;;;;6.03;100.00;98044.97;4945238;29;19922;-89
2024/03/02 16:21:56;;;;;;;;;;;;;;;6.08;100.00;98042.94;4945046;29;19926;-90
2024/03/02 16:24:22;;;;;;;;;;;;;;;6.13;100.00;98035.69;4944590;29;19919;-88
2024/03/02 16:26:47;;;;;;;;;;;;;;;6.06;100.00;98032.50;4943180;29;20587;-86
2024/03/02 16:29:33;;;;;;;;;;;;;;;6.06;100.00;98023.78;4928660;29;19998;-91
2024/03/02 16:32:18;;;;;;;;;;;;;;;6.08;100.00;98021.91;4943828;29;19926;-89
2024/03/02 16:34:51;;;;;;;;;;;;;;;6.08;100.00;98022.78;4927018;29;20377;-86
2024/03/02 16:37:16;;;;;;;;;;;;;;;6.06;100.00;98019.34;4944159;29;19978;-88
2024/03/02 16:39:43;;;;;;;;;;;;;;;6.02;100.00;98015.19;4944053;29;20421;-87
2024/03/02 16:42:11;;;;;;;;;;;;;;;6.11;100.00;98021.75;4927157;29;19919;-89
2024/03/02 16:44:36;;;;;;;;;;;;;;;6.08;100.00;98016.63;4944172;29;19946;-90
2024/03/02 16:50:11;;;;;;;;;;;;;;;6.03;100.00;98018.66;4962815;28;20404;-91
2024/03/02 16:52:59;;;;;;;;;;;;;;;6.09;100.00;98019.19;4981333;28;19938;-90
2024/03/02 16:55:48;;;;;;;;;;;;;;;6.11;100.00;98016.47;4974085;28;19918;-89
2024/03/02 16:58:14;;;;;;;;;;;;;;;6.09;100.00;98008.66;4963595;28;20016;-87
2024/03/02 17:00:52;;;;;;;;;;;;;;;;;;;;;
2024/03/02 17:03:18;;;;;;;;;;;;;;;6.08;100.00;97995.59;4974905;28;20491;-91
2024/03/02 17:05:46;;;;;;;;;;;;;;;6.08;100.00;97990.34;4973940;28;20009;-96
2024/03/02 17:08:15;;;;;;;;;;;;;;;6.15;100.00;97987.31;4974871;28;20033;-91
2024/03/02 17:10:45;;;;;;;;;;;;;;;6.13;100.00;97983.94;4972921;28;20404;-91
2024/03/02 17:13:18;;;;;;;;;;;;;;;6.09;100.00;97982.38;4973590;28;19973;-92
2024/03/02 17:15:46;;;;;;;;;;;;;;;6.11;100.00;97977.91;4982149;28;19918;-90
2024/03/02 17:18:40;;;;;;;;;;;;;;;6.16;100.00;97983.75;4973855;28;19924;-93
2024/03/02 17:21:05;;;;;;;;;;;;;;;6.12;100.00;97991.91;4972527;28;20005;-90
2024/03/02 17:23:42;;;;;;;;;;;;;;;6.07;100.00;97984.25;4974875;28;20008;-93
2024/03/02 17:26:25;;;;;;;;;;;;;;;6.12;100.00;97991.91;4973557;28;20429;-94
2024/03/02 17:28:56;;;;;;;;;;;;;;;6.17;100.00;97997.75;4974522;28;19922;-92
2024/03/02 17:31:21;;;;;;;;;;;;;;;6.19;100.00;98001.16;4975246;28;19922;-91
2024/03/02 17:34:07;;;;;;;;;;;;;;;6.15;100.00;98002.25;4973639;28;19965;-89
2024/03/02 17:36:35;;;;;;;;;;;;;;;6.17;100.00;98003.88;4974423;28;19922;-92
2024/03/02 17:39:03;;;;;;;;;;;;;;;6.23;100.00;98005.31;4981014;28;19926;-89
2024/03/02 17:41:36;;;;;;;;;;;;;;;6.16;100.00;98003.97;4972275;28;19926;-92
2024/03/02 17:44:03;;;;;;;;;;;;;;;6.15;100.00;97995.19;4981147;28;19922;-90
2024/03/02 17:46:31;;;;;;;;;;;;;;;6.20;100.00;97999.38;4973596;28;20321;-91
2024/03/02 17:48:56;;;;;;;;;;;;;;;6.20;100.00;97994.97;4974362;28;19973;-89
2024/03/02 17:51:34;;;;;;;;;;;;;;;;;;;;;
2024/03/02 17:54:00;;;;;;;;;;;;;;;6.59;100.00;97991.13;4973784;28;19928;-86
2024/03/02 17:56:25;;;;;;;;;;;;;;;6.50;100.00;97988.97;4973198;28;19922;-87
2024/03/02 17:59:02;;;;;;;;;;;;;;;6.32;100.00;97980.31;4973041;28;19941;-91
2024/03/02 18:01:30;;;;;;;;;;;;;;;6.24;100.00;97986.00;4974337;28;19993;-93
2024/03/02 18:03:56;;;;;;;;;;;;;;;6.26;100.00;97985.91;4974337;28;19918;-87
2024/03/02 18:06:21;;;;;;;;;;;;;;;6.27;100.00;97993.72;4973003;28;19929;-84
2024/03/02 18:08:49;;;;;;;;;;;;;;;6.20;100.00;98004.63;4974197;28;19918;-88
2024/03/02 18:11:18;;;;;;;;;;;;;;;6.23;100.00;98010.56;4972288;28;19933;-87
2024/03/02 18:13:43;;;;;;;;;;;;;;;6.27;100.00;98016.50;4973661;28;19930;-89
2024/03/02 18:16:11;;;;;;;;;;;;;;;6.21;100.00;98017.72;4971641;28;19974;-85
2024/03/02 18:18:40;;;;;;;;;;;;;;;6.21;100.00;98014.22;4973576;28;19959;-87
2024/03/02 18:21:05;;;;;;;;;;;;;;;6.31;100.00;98018.06;4973272;28;19990;-91
2024/03/02 18:23:33;;;;;;;;;;;;;;;6.23;100.00;98005.31;4974144;28;20005;-90
2024/03/02 18:25:59;;;;;;;;;;;;;;;6.25;100.00;97999.97;4974042;28;20289;-87
2024/03/02 18:28:24;;;;;;;;;;;;;;;6.30;100.00;97985.66;4974065;28;19929;-91
2024/03/02 18:30:49;;;;;;;;;;;;;;;6.23;100.00;97968.50;4973553;28;20344;-89
2024/03/02 18:33:15;;;;;;;;;;;;;;;6.30;100.00;97969.00;4974656;28;19922;-88
2024/03/02 18:35:41;;;;;;;;;;;;;;;6.35;100.00;97961.72;4973795;28;19972;-85
2024/03/02 18:38:06;;;;;;;;;;;;;;;6.26;100.00;97963.06;4973899;28;20326;-88
2024/03/02 18:40:31;;;;;;;;;;;;;;;6.27;100.00;97956.88;4972549;28;19918;-85
2024/03/02 18:43:00;;;;;;;;;;;;;;;6.30;100.00;97955.84;4973817;28;19926;-90